Time;durP1;ratioP1;P1;durP2;ratioP2;P2;SDS_P1;SDS_P2;PMS_P1;PMS_P2;Temp;Humidity;BMP_temperature;BMP_pressure;BME280_temperature;BME280_humidity;BME280_pressure;Samples;Min_cycle;Max_cycle;Signal;HPM_P1;HPM_P2
2023/10/21 00:00:08;;;;;;;5.78;2.80;;;;;;;15.06;59.71;93191.53;530634;27;935;-48
2023/10/21 00:00:23;;;;;;;6.50;3.17;;;;;;;15.06;59.81;93191.53;530011;28;1700;-48
2023/10/21 00:00:39;;;;;;;6.35;3.05;;;;;;;15.05;59.81;93187.28;528564;28;861;-47
2023/10/21 00:00:54;;;;;;;5.10;2.63;;;;;;;15.05;59.86;93201.19;529775;27;1078;-47
2023/10/21 00:01:09;;;;;;;2.73;2.40;;;;;;;15.04;59.88;93194.19;530638;27;861;-47
2023/10/21 00:01:25;;;;;;;3.97;2.45;;;;;;;15.05;59.98;93195.63;530611;27;853;-48
2023/10/21 00:01:40;;;;;;;5.93;2.60;;;;;;;15.05;60.09;93194.91;528684;27;845;-48
2023/10/21 00:01:56;;;;;;;6.25;2.67;;;;;;;15.04;60.00;93196.97;528510;28;956;-48
2023/10/21 00:02:11;;;;;;;5.17;3.07;;;;;;;15.03;60.14;93198.25;528546;28;868;-47
2023/10/21 00:02:26;;;;;;;5.90;3.13;;;;;;;15.02;60.30;93202.38;528723;27;1109;-47
2023/10/21 00:02:42;;;;;;;5.47;2.67;;;;;;;15.02;60.27;93204.41;528473;28;892;-48
2023/10/21 00:02:57;;;;;;;3.70;2.17;;;;;;;15.00;60.13;93205.00;528558;28;774;-49
2023/10/21 00:03:12;;;;;;;5.10;2.40;;;;;;;14.99;60.26;93194.44;528547;28;864;-48
2023/10/21 00:03:29;;;;;;;6.30;2.60;;;;;;;15.02;60.44;93199.59;528712;28;1136;-48
2023/10/21 00:03:44;;;;;;;5.25;2.60;;;;;;;14.83;60.53;93168.25;529917;27;919;-49
2023/10/21 00:04:00;;;;;;;4.28;2.88;;;;;;;15.01;60.40;93198.09;528543;28;872;-47
2023/10/21 00:04:15;;;;;;;3.67;2.90;;;;;;;15.01;60.34;93189.78;530487;27;1137;-47
2023/10/21 00:04:31;;;;;;;2.43;2.20;;;;;;;15.02;60.59;93185.69;528487;28;876;-47
2023/10/21 00:04:47;;;;;;;4.25;2.15;;;;;;;15.01;60.38;93184.22;530505;27;996;-48
2023/10/21 00:05:02;;;;;;;6.90;2.70;;;;;;;15.02;60.25;93190.50;530597;27;1108;-49
2023/10/21 00:05:17;;;;;;;4.87;2.60;;;;;;;15.02;60.24;93179.38;529956;27;916;-48
2023/10/21 00:05:33;;;;;;;3.05;2.75;;;;;;;15.03;60.40;93189.19;528524;28;865;-48
2023/10/21 00:05:48;;;;;;;3.87;2.90;;;;;;;15.03;60.15;93189.19;528425;28;903;-50
2023/10/21 00:06:03;;;;;;;5.10;2.87;;;;;;;15.03;60.05;93183.63;526196;28;1267;-48
2023/10/21 00:06:19;;;;;;;4.95;2.75;;;;;;;15.02;59.94;93194.03;526963;28;912;-47
2023/10/21 00:06:34;;;;;;;6.18;2.40;;;;;;;15.02;60.04;93199.59;528444;28;875;-47
2023/10/21 00:06:50;;;;;;;5.37;2.23;;;;;;;15.02;59.97;93196.81;528252;28;1016;-46
2023/10/21 00:07:05;;;;;;;3.38;2.42;;;;;;;14.99;59.97;93195.19;528448;28;809;-48
2023/10/21 00:07:20;;;;;;;4.00;2.77;;;;;;;15.02;60.03;93198.84;528003;28;1643;-48
2023/10/21 00:07:37;;;;;;;3.73;2.73;;;;;;;15.02;59.95;93205.16;526690;28;891;-47
2023/10/21 00:07:52;;;;;;;3.58;2.65;;;;;;;15.01;60.06;93195.34;528461;28;892;-48
2023/10/21 00:08:08;;;;;;;4.03;2.60;;;;;;;15.02;60.06;93196.06;528489;28;1353;-47
2023/10/21 00:08:23;;;;;;;4.93;2.60;;;;;;;15.01;60.04;93192.56;529628;27;947;-49
2023/10/21 00:08:38;;;;;;;5.32;2.47;;;;;;;14.97;59.94;93192.25;530670;27;847;-48
2023/10/21 00:08:54;;;;;;;4.63;2.40;;;;;;;15.02;60.10;93188.47;530653;27;789;-49
2023/10/21 00:09:09;;;;;;;4.63;2.67;;;;;;;15.02;59.97;93185.69;530558;27;924;-47
2023/10/21 00:09:24;;;;;;;4.22;2.80;;;;;;;15.02;59.87;93194.03;530583;27;1554;-47
2023/10/21 00:09:40;;;;;;;2.93;2.57;;;;;;;15.02;59.78;93190.50;530611;27;884;-49
2023/10/21 00:09:55;;;;;;;3.73;2.33;;;;;;;15.02;59.75;93188.47;530628;27;1171;-50
2023/10/21 00:10:10;;;;;;;4.47;2.50;;;;;;;14.93;59.60;93177.31;530644;27;892;-48
2023/10/21 00:10:26;;;;;;;5.40;2.80;;;;;;;15.01;59.80;93192.56;530592;27;1186;-49
2023/10/21 00:10:42;;;;;;;5.45;2.75;;;;;;;15.01;59.77;93189.78;530679;27;865;-48
2023/10/21 00:11:02;;;;;;;4.80;2.80;;;;;;;15.00;59.77;93191.09;530406;27;1736;-49
2023/10/21 00:11:17;;;;;;;5.03;2.80;;;;;;;14.99;59.75;93192.41;529780;27;981;-47
2023/10/21 00:11:32;;;;;;;5.35;2.63;;;;;;;14.99;59.75;93189.63;528752;27;934;-47
2023/10/21 00:11:48;;;;;;;4.40;2.50;;;;;;;14.98;59.85;93193.72;530614;27;865;-48
2023/10/21 00:12:06;;;;;;;3.53;2.60;;;;;;;14.96;59.55;93190.06;530673;27;860;-48
2023/10/21 00:12:21;;;;;;;4.35;2.72;;;;;;;14.99;59.43;93189.63;530518;27;1048;-48
2023/10/21 00:12:37;;;;;;;4.00;2.80;;;;;;;14.98;59.45;93190.97;530644;27;797;-48
2023/10/21 00:12:52;;;;;;;4.30;2.60;;;;;;;14.98;59.49;93187.44;529646;27;829;-48
2023/10/21 00:13:08;;;;;;;4.50;2.60;;;;;;;14.96;59.63;93188.03;528388;28;968;-47
2023/10/21 00:13:23;;;;;;;3.90;2.80;;;;;;;14.95;59.59;93189.34;529833;27;932;-47
2023/10/21 00:13:39;;;;;;;3.20;2.77;;;;;;;14.95;59.68;93185.81;530658;27;891;-48
2023/10/21 00:13:54;;;;;;;2.80;2.50;;;;;;;14.93;59.30;93183.63;530646;27;860;-48
2023/10/21 00:14:09;;;;;;;3.73;2.53;;;;;;;14.93;59.58;93185.66;529733;27;1693;-51
2023/10/21 00:14:25;;;;;;;4.45;2.65;;;;;;;14.92;59.57;93181.44;528738;28;873;-48
2023/10/21 00:14:40;;;;;;;2.97;2.50;;;;;;;14.83;59.34;93171.78;529467;27;837;-48
2023/10/21 00:14:56;;;;;;;2.47;2.28;;;;;;;14.91;59.42;93189.03;530585;27;989;-48
2023/10/21 00:15:11;;;;;;;3.23;2.30;;;;;;;14.91;59.31;93183.47;530602;27;813;-48
2023/10/21 00:15:27;;;;;;;4.20;2.55;;;;;;;14.86;59.44;93178.94;530196;27;825;-47
2023/10/21 00:15:42;;;;;;;5.03;2.90;;;;;;;14.86;59.52;93178.94;530589;27;896;-47
2023/10/21 00:15:58;;;;;;;4.80;2.83;;;;;;;14.83;59.40;93173.81;530461;27;1133;-48
2023/10/21 00:16:15;;;;;;;3.17;2.55;;;;;;;14.88;59.65;93183.91;529829;27;1022;-48
2023/10/21 00:16:31;;;;;;;2.85;2.42;;;;;;;14.87;59.54;93185.97;529588;27;1009;-47
2023/10/21 00:16:46;;;;;;;4.18;2.63;;;;;;;14.86;59.63;93186.53;530669;27;797;-48
2023/10/21 00:17:03;;;;;;;4.13;2.53;;;;;;;14.85;59.66;93183.03;528865;27;1768;-47
2023/10/21 00:17:18;;;;;;;4.88;2.60;;;;;;;14.86;59.78;93183.75;528680;27;1057;-48
2023/10/21 00:17:34;;;;;;;4.75;2.67;;;;;;;14.85;60.03;93187.84;528558;28;893;-48
2023/10/21 00:17:49;;;;;;;3.03;2.40;;;;;;;14.84;59.99;93184.34;528408;28;1906;-50
2023/10/21 00:18:05;;;;;;;3.23;2.30;;;;;;;14.83;60.13;93187.72;529397;27;1197;-48
2023/10/21 00:18:20;;;;;;;3.53;2.30;;;;;;;14.82;60.08;93180.69;530110;27;944;-49
2023/10/21 00:18:35;;;;;;;3.90;2.73;;;;;;;14.82;59.99;93189.75;530684;27;860;-48
2023/10/21 00:18:51;;;;;;;3.15;2.75;;;;;;;14.82;60.09;93198.09;530546;27;1105;-47
2023/10/21 00:19:06;;;;;;;5.90;2.60;;;;;;;14.81;60.03;93193.84;530653;27;845;-48
2023/10/21 00:19:22;;;;;;;7.00;2.70;;;;;;;14.79;60.10;93185.34;530462;27;1000;-48
2023/10/21 00:19:37;;;;;;;4.18;2.83;;;;;;;14.79;60.03;93188.13;529711;27;1718;-49
2023/10/21 00:19:52;;;;;;;4.23;2.53;;;;;;;14.79;60.11;93190.91;528529;28;770;-47
2023/10/21 00:20:08;;;;;;;4.20;2.53;;;;;;;14.79;60.22;93190.91;528419;28;897;-47
2023/10/21 00:20:24;;;;;;;4.85;2.92;;;;;;;14.55;60.42;93149.50;528772;27;966;-47
2023/10/21 00:20:39;;;;;;;5.23;2.90;;;;;;;14.78;60.33;93183.16;528445;28;806;-51
2023/10/21 00:20:54;;;;;;;3.95;2.60;;;;;;;14.75;60.29;93176.00;528565;28;932;-47
2023/10/21 00:21:10;;;;;;;3.63;2.43;;;;;;;14.74;60.18;93178.03;528446;28;836;-47
2023/10/21 00:21:25;;;;;;;3.67;2.27;;;;;;;14.79;60.29;93179.09;530192;27;953;-47
2023/10/21 00:21:40;;;;;;;3.63;2.45;;;;;;;14.55;60.28;93139.13;529804;27;859;-49
2023/10/21 00:21:56;;;;;;;4.77;2.77;;;;;;;14.79;60.13;93179.09;529965;27;1101;-50
2023/10/21 00:22:11;;;;;;;4.40;2.78;;;;;;;14.78;59.88;93174.81;530597;27;845;-46
2023/10/21 00:22:27;;;;;;;3.97;2.57;;;;;;;14.78;59.86;93186.69;530592;27;836;-47
2023/10/21 00:22:42;;;;;;;4.55;2.90;;;;;;;14.77;59.81;93176.88;530496;27;1133;-48
2023/10/21 00:22:58;;;;;;;4.67;3.13;;;;;;;14.75;59.74;93185.06;530601;27;974;-50
2023/10/21 00:23:13;;;;;;;4.90;3.03;;;;;;;14.74;59.80;93183.59;530534;27;1567;-48
2023/10/21 00:23:29;;;;;;;4.73;2.63;;;;;;;14.72;59.87;93177.16;530559;27;1254;-47
2023/10/21 00:23:45;;;;;;;4.45;2.42;;;;;;;14.71;60.11;93170.88;530670;27;911;-48
2023/10/21 00:24:00;;;;;;;3.50;2.60;;;;;;;14.70;59.97;93180.53;529277;27;1163;-48
2023/10/21 00:24:15;;;;;;;3.38;2.60;;;;;;;14.68;59.93;93174.09;529457;27;1792;-47
2023/10/21 00:24:31;;;;;;;5.23;3.00;;;;;;;14.68;60.06;93174.09;530519;27;1368;-47
2023/10/21 00:24:46;;;;;;;5.57;2.90;;;;;;;14.67;60.14;93178.91;528886;28;830;-48
2023/10/21 00:25:04;;;;;;;6.20;2.60;;;;;;;14.63;60.22;93164.72;528524;28;822;-48
2023/10/21 00:25:19;;;;;;;6.20;2.80;;;;;;;14.68;60.17;93179.63;529206;27;877;-48
2023/10/21 00:25:34;;;;;;;4.40;2.87;;;;;;;14.66;60.09;93177.44;530614;27;928;-47
2023/10/21 00:25:50;;;;;;;4.03;3.00;;;;;;;14.64;60.08;93180.06;530458;27;1065;-48
2023/10/21 00:26:06;;;;;;;3.73;2.50;;;;;;;14.65;59.93;93181.53;530536;27;825;-48
2023/10/21 00:26:22;;;;;;;3.95;2.35;;;;;;;14.59;60.27;93178.31;530099;27;967;-47
2023/10/21 00:26:47;;;;;;;5.30;2.65;;;;;;;14.61;60.39;93186.78;530542;27;1070;-47
2023/10/21 00:27:03;;;;;;;3.55;2.50;;;;;;;14.61;60.42;93188.84;529478;27;868;-47
2023/10/21 00:27:18;;;;;;;3.30;2.63;;;;;;;14.59;60.48;93186.66;529061;27;794;-48
2023/10/21 00:27:34;;;;;;;4.53;2.77;;;;;;;14.59;60.73;93186.66;529653;27;1076;-48
2023/10/21 00:27:49;;;;;;;5.47;2.58;;;;;;;14.57;60.78;93180.94;530485;27;869;-49
2023/10/21 00:28:05;;;;;;;4.53;2.50;;;;;;;14.49;60.86;93176.81;530623;27;864;-48
2023/10/21 00:28:20;;;;;;;3.17;2.47;;;;;;;14.54;60.79;93176.53;530478;27;881;-48
2023/10/21 00:28:35;;;;;;;4.33;2.93;;;;;;;14.54;60.91;93178.56;530590;27;953;-48
2023/10/21 00:28:51;;;;;;;5.73;3.30;;;;;;;14.54;61.14;93175.78;529406;27;1565;-48
2023/10/21 00:29:06;;;;;;;4.03;2.60;;;;;;;14.53;60.83;93177.84;529078;27;1100;-51
2023/10/21 00:29:22;;;;;;;3.10;2.40;;;;;;;14.54;60.77;93179.31;530044;27;1023;-47
2023/10/21 00:29:37;;;;;;;3.92;2.53;;;;;;;14.54;60.72;93184.13;528812;27;1724;-48
2023/10/21 00:29:53;;;;;;;5.80;2.43;;;;;;;14.53;60.73;93180.63;528670;27;1206;-47
2023/10/21 00:30:09;;;;;;;5.20;2.70;;;;;;;14.52;60.74;93183.97;530485;27;908;-47
2023/10/21 00:30:24;;;;;;;3.25;2.63;;;;;;;14.52;60.93;93181.94;529275;27;1169;-48
2023/10/21 00:30:41;;;;;;;3.20;2.67;;;;;;;14.52;60.89;93187.50;528388;27;985;-48
2023/10/21 00:30:56;;;;;;;4.38;2.72;;;;;;;14.43;60.78;93168.75;530634;27;954;-49
2023/10/21 00:31:11;;;;;;;5.73;2.60;;;;;;;14.50;60.88;93181.78;530520;27;865;-48
2023/10/21 00:31:27;;;;;;;6.10;2.63;;;;;;;14.50;60.78;93181.78;530513;27;876;-47
2023/10/21 00:31:43;;;;;;;4.60;2.65;;;;;;;14.50;60.87;93176.22;528865;27;821;-47
2023/10/21 00:31:58;;;;;;;3.55;2.53;;;;;;;14.51;60.98;93180.47;530358;27;1728;-47
2023/10/21 00:32:14;;;;;;;5.10;2.67;;;;;;;14.50;60.91;93179.00;529517;27;1713;-47
2023/10/21 00:32:29;;;;;;;6.03;2.78;;;;;;;14.48;60.96;93173.31;528832;27;981;-48
2023/10/21 00:32:44;;;;;;;3.57;2.50;;;;;;;14.51;61.08;93174.91;528474;28;809;-47
2023/10/21 00:33:00;;;;;;;2.77;2.43;;;;;;;14.51;61.10;93183.25;528575;28;829;-47
2023/10/21 00:33:15;;;;;;;3.33;2.50;;;;;;;14.27;61.04;93146.00;529690;27;1116;-48
2023/10/21 00:33:31;;;;;;;4.77;2.50;;;;;;;14.50;61.22;93176.22;528470;28;852;-49
2023/10/21 00:33:46;;;;;;;4.47;2.47;;;;;;;14.51;61.30;93176.97;528533;28;873;-48
2023/10/21 00:34:01;;;;;;;4.00;2.70;;;;;;;14.49;61.31;93174.03;529605;27;1092;-48
2023/10/21 00:34:17;;;;;;;3.27;2.67;;;;;;;14.51;61.28;93176.97;530419;27;952;-48
2023/10/21 00:34:38;;;;;;;3.80;2.70;;;;;;;14.51;61.40;93171.41;530570;27;849;-48
2023/10/21 00:34:53;;;;;;;4.47;2.65;;;;;;;14.51;61.50;93177.69;530557;27;951;-49
2023/10/21 00:35:09;;;;;;;4.97;2.67;;;;;;;14.51;61.36;93179.75;530589;27;829;-47
2023/10/21 00:35:25;;;;;;;6.07;2.85;;;;;;;14.50;61.47;93172.72;530542;27;911;-46
2023/10/21 00:35:43;;;;;;;3.90;2.87;;;;;;;14.48;61.40;93176.09;530472;27;1048;-47
2023/10/21 00:35:58;;;;;;;3.95;2.58;;;;;;;14.48;61.52;93175.34;529213;27;1789;-48
2023/10/21 00:36:14;;;;;;;3.73;2.40;;;;;;;14.37;61.52;93163.50;530496;27;939;-48
2023/10/21 00:36:29;;;;;;;3.03;2.50;;;;;;;14.45;61.66;93174.47;528544;27;821;-48
2023/10/21 00:36:44;;;;;;;3.40;2.78;;;;;;;14.45;61.57;93177.22;528506;28;904;-48
2023/10/21 00:37:00;;;;;;;3.13;2.67;;;;;;;14.46;61.68;93180.75;528327;28;1402;-48
2023/10/21 00:37:16;;;;;;;2.80;2.55;;;;;;;14.46;61.75;93170.38;529646;27;1121;-46
2023/10/21 00:37:31;;;;;;;3.00;2.67;;;;;;;14.47;61.61;93182.94;528654;27;813;-47
2023/10/21 00:37:46;;;;;;;3.93;2.60;;;;;;;14.46;61.36;93173.16;529215;27;2037;-49
2023/10/21 00:38:02;;;;;;;4.60;2.80;;;;;;;14.45;61.40;93174.47;528751;28;856;-47
2023/10/21 00:38:18;;;;;;;3.00;2.45;;;;;;;14.44;61.42;93179.28;530051;27;858;-47
2023/10/21 00:38:34;;;;;;;3.17;2.17;;;;;;;14.45;61.36;93180.00;530000;27;1682;-46
2023/10/21 00:38:49;;;;;;;4.50;2.50;;;;;;;14.44;61.45;93187.59;530167;27;895;-48
2023/10/21 00:39:10;;;;;;;4.20;2.60;;;;;;;14.43;61.50;93177.09;530526;27;947;-49
2023/10/21 00:39:26;;;;;;;4.40;2.30;;;;;;;14.39;61.43;93171.97;530486;27;999;-47
2023/10/21 00:39:42;;;;;;;5.53;2.58;;;;;;;14.36;61.55;93169.59;529268;27;912;-47
2023/10/21 00:39:58;;;;;;;5.10;2.53;;;;;;;14.43;61.48;93182.63;528482;28;885;-48
2023/10/21 00:40:13;;;;;;;5.53;2.53;;;;;;;14.43;61.64;93185.41;528328;28;1650;-49
2023/10/21 00:40:28;;;;;;;5.63;2.33;;;;;;;14.43;61.44;93182.63;530529;27;913;-47
2023/10/21 00:40:51;;;;;;;3.90;2.27;;;;;;;14.41;61.45;93179.72;530489;27;1259;-47
2023/10/21 00:41:07;;;;;;;7.40;2.72;;;;;;;14.42;61.37;93189.53;530554;27;873;-47
2023/10/21 00:41:22;;;;;;;4.80;2.63;;;;;;;14.41;61.60;93179.72;530416;27;943;-47
2023/10/21 00:41:38;;;;;;;3.93;2.70;;;;;;;14.18;61.80;93143.22;530579;27;845;-47
2023/10/21 00:41:54;;;;;;;3.92;2.90;;;;;;;14.39;61.83;93183.06;530602;27;975;-47
2023/10/21 00:42:09;;;;;;;4.47;2.70;;;;;;;14.40;61.82;93183.81;530385;27;1059;-49
2023/10/21 00:42:25;;;;;;;4.70;2.70;;;;;;;14.40;61.71;93186.59;530480;27;1116;-47
2023/10/21 00:42:40;;;;;;;3.42;2.53;;;;;;;14.40;61.77;93183.81;530526;27;1696;-47
2023/10/21 00:42:55;;;;;;;5.33;2.43;;;;;;;14.40;61.69;93186.59;530633;27;880;-46
2023/10/21 00:43:11;;;;;;;6.33;2.63;;;;;;;14.40;61.69;93183.81;529848;27;1828;-47
2023/10/21 00:43:39;;;;;;;3.65;2.58;;;;;;;14.40;61.76;93187.31;529075;27;1062;-46
2023/10/21 00:43:54;;;;;;;2.55;2.35;;;;;;;14.41;61.66;93179.72;530304;27;1097;-47
2023/10/21 00:44:10;;;;;;;3.53;2.43;;;;;;;14.39;61.69;93180.31;530471;27;873;-47
2023/10/21 00:44:26;;;;;;;5.75;2.65;;;;;;;14.39;61.81;93177.53;530249;27;944;-47
2023/10/21 00:44:41;;;;;;;6.97;2.50;;;;;;;14.40;61.64;93178.25;530537;27;797;-48
2023/10/21 00:44:57;;;;;;;7.00;2.40;;;;;;;14.34;61.61;93169.44;530634;27;774;-46
2023/10/21 00:45:12;;;;;;;5.55;2.70;;;;;;;14.36;61.56;93178.66;530449;27;1129;-46
2023/10/21 00:45:27;;;;;;;4.10;2.90;;;;;;;14.39;61.70;93176.78;528613;28;793;-47
2023/10/21 00:45:43;;;;;;;3.77;2.60;;;;;;;14.36;61.68;93170.34;526236;28;789;-45
2023/10/21 00:46:02;;;;;;;3.83;2.55;;;;;;;14.38;61.75;93181.59;526158;28;869;-47
2023/10/21 00:46:18;;;;;;;2.80;2.55;;;;;;;14.27;61.80;93167.53;526738;28;845;-46
2023/10/21 00:46:33;;;;;;;3.00;2.58;;;;;;;14.35;61.92;93170.94;528403;28;794;-46
2023/10/21 00:46:49;;;;;;;5.87;2.67;;;;;;;14.36;62.02;93180.72;527011;28;1639;-48
2023/10/21 00:47:04;;;;;;;5.75;2.63;;;;;;;14.35;61.93;93182.78;524278;28;1072;-46
2023/10/21 00:47:19;;;;;;;4.97;2.70;;;;;;;14.36;61.82;93177.94;525588;28;1616;-46
2023/10/21 00:47:35;;;;;;;6.47;2.83;;;;;;;14.36;61.77;93180.72;522836;28;969;-47
2023/10/21 00:47:50;;;;;;;4.75;2.70;;;;;;;14.36;61.88;93177.94;524137;28;893;-46
2023/10/21 00:48:06;;;;;;;4.60;2.50;;;;;;;14.35;61.87;93174.44;524136;28;781;-46
2023/10/21 00:48:21;;;;;;;5.72;2.58;;;;;;;14.32;61.88;93175.59;524715;28;1051;-47
2023/10/21 00:48:38;;;;;;;4.40;2.40;;;;;;;14.35;61.94;93173.72;526180;28;790;-47
2023/10/21 00:48:53;;;;;;;4.75;2.50;;;;;;;14.35;61.98;93179.25;526412;28;880;-47
2023/10/21 00:49:09;;;;;;;3.83;2.45;;;;;;;14.27;61.83;93161.97;526077;28;854;-48
2023/10/21 00:49:29;;;;;;;4.15;2.72;;;;;;;14.36;61.97;93177.94;528165;27;960;-47
2023/10/21 00:49:44;;;;;;;4.28;2.83;;;;;;;14.36;61.96;93173.13;529005;27;1089;-47
2023/10/21 00:50:01;;;;;;;4.37;2.73;;;;;;;14.34;62.03;93169.44;528223;28;872;-47
2023/10/21 00:50:17;;;;;;;3.17;2.53;;;;;;;14.31;61.85;93170.63;529378;27;2183;-46
2023/10/21 00:50:32;;;;;;;5.00;2.70;;;;;;;14.35;61.91;93173.72;530584;27;883;-47
2023/10/21 00:50:48;;;;;;;5.70;2.70;;;;;;;14.36;61.93;93175.91;530537;27;878;-46
2023/10/21 00:51:03;;;;;;;4.80;2.65;;;;;;;14.36;61.79;93173.13;528386;28;863;-47
2023/10/21 00:51:19;;;;;;;4.57;2.60;;;;;;;14.19;61.74;93153.00;528069;28;1149;-46
2023/10/21 00:51:35;;;;;;;4.63;2.90;;;;;;;14.31;61.80;93173.41;528398;28;785;-47
2023/10/21 00:51:50;;;;;;;4.53;2.70;;;;;;;14.30;61.93;93175.44;527584;28;942;-46
2023/10/21 00:52:06;;;;;;;3.38;2.70;;;;;;;14.31;61.60;93179.66;526206;28;1408;-48
2023/10/21 00:52:21;;;;;;;3.10;2.70;;;;;;;14.29;61.71;93173.97;524434;28;1790;-48
2023/10/21 00:52:46;;;;;;;2.83;2.30;;;;;;;14.32;61.77;93175.59;526070;28;869;-48
2023/10/21 00:53:01;;;;;;;3.92;2.72;;;;;;;14.31;61.76;93176.91;527909;28;928;-50
2023/10/21 00:53:17;;;;;;;4.53;2.75;;;;;;;14.32;61.45;93180.41;527879;28;952;-48
2023/10/21 00:53:33;;;;;;;3.37;2.67;;;;;;;14.29;61.52;93176.75;528240;28;1089;-48
2023/10/21 00:53:49;;;;;;;2.88;2.58;;;;;;;14.30;61.33;93169.16;528314;28;903;-47
2023/10/21 00:54:05;;;;;;;3.00;2.60;;;;;;;14.32;61.29;93174.84;530169;27;892;-48
2023/10/21 00:54:22;;;;;;;4.63;2.75;;;;;;;14.31;61.27;93181.75;529590;27;1149;-48
2023/10/21 00:54:37;;;;;;;4.55;2.92;;;;;;;14.31;61.46;93176.19;526215;28;873;-47
2023/10/21 00:54:55;;;;;;;4.33;3.03;;;;;;;14.29;61.44;93176.03;524109;28;919;-47
2023/10/21 00:55:12;;;;;;;4.35;2.90;;;;;;;14.28;61.68;93171.75;526077;28;1074;-48
2023/10/21 00:55:27;;;;;;;4.72;2.85;;;;;;;14.30;61.57;93174.72;526137;28;820;-48
2023/10/21 00:55:43;;;;;;;4.27;2.70;;;;;;;14.31;61.69;93167.84;523978;28;1130;-47
2023/10/21 00:56:01;;;;;;;4.15;2.60;;;;;;;14.25;61.68;93156.25;524132;28;798;-48
2023/10/21 00:56:16;;;;;;;4.32;2.55;;;;;;;14.28;61.59;93172.50;524001;28;898;-48
2023/10/21 00:56:32;;;;;;;5.43;2.60;;;;;;;14.27;61.72;93171.00;524083;28;1518;-47
2023/10/21 00:56:47;;;;;;;5.03;2.70;;;;;;;14.27;61.68;93167.53;526406;28;1622;-48
2023/10/21 00:57:03;;;;;;;4.53;2.73;;;;;;;14.27;61.79;93170.31;526219;28;939;-47
2023/10/21 00:57:18;;;;;;;5.60;2.83;;;;;;;14.27;61.73;93167.53;526767;28;1118;-47
2023/10/21 00:57:36;;;;;;;4.63;3.03;;;;;;;14.03;61.81;93141.44;528250;28;924;-47
2023/10/21 00:57:51;;;;;;;3.47;2.80;;;;;;;14.26;61.73;93168.81;528269;28;1918;-47
2023/10/21 00:58:07;;;;;;;3.77;2.63;;;;;;;14.23;61.90;93164.41;528465;28;785;-47
2023/10/21 00:58:22;;;;;;;4.23;2.53;;;;;;;14.27;61.58;93171.00;527378;28;1025;-47
2023/10/21 00:58:38;;;;;;;5.30;2.53;;;;;;;14.27;61.69;93170.31;528269;28;860;-48
2023/10/21 00:58:53;;;;;;;4.20;2.50;;;;;;;14.27;61.69;93171.00;527440;28;1164;-47
2023/10/21 00:59:10;;;;;;;3.77;2.53;;;;;;;14.27;61.75;93171.00;526142;28;891;-49
2023/10/21 00:59:25;;;;;;;5.45;2.63;;;;;;;14.27;61.64;93167.53;527055;28;1655;-49
2023/10/21 00:59:41;;;;;;;8.67;2.73;;;;;;;14.28;61.79;93174.53;527211;28;916;-47
2023/10/21 00:59:56;;;;;;;6.80;2.70;;;;;;;14.25;61.79;93168.09;527565;28;1033;-48
2023/10/21 01:00:13;;;;;;;3.23;2.43;;;;;;;14.26;61.78;93169.56;528351;28;801;-47
2023/10/21 01:00:28;;;;;;;4.70;2.40;;;;;;;14.26;61.81;93169.56;527325;28;934;-47
2023/10/21 01:00:43;;;;;;;5.35;2.47;;;;;;;14.27;61.83;93171.00;526210;28;893;-46
2023/10/21 01:01:01;;;;;;;4.00;2.60;;;;;;;14.27;61.79;93175.84;526190;28;809;-49
2023/10/21 01:01:17;;;;;;;6.38;2.70;;;;;;;14.27;61.71;93171.00;526606;28;916;-48
2023/10/21 01:01:34;;;;;;;4.77;2.80;;;;;;;14.28;61.86;93177.31;528127;28;1508;-47
2023/10/21 01:01:50;;;;;;;3.13;2.72;;;;;;;14.28;61.87;93174.53;529244;27;1144;-48
2023/10/21 01:02:05;;;;;;;3.10;2.37;;;;;;;14.28;62.23;93178.03;529876;27;1662;-47
2023/10/21 01:02:21;;;;;;;3.05;2.40;;;;;;;14.20;62.12;93155.22;526809;28;828;-49
2023/10/21 01:02:39;;;;;;;3.43;2.47;;;;;;;14.31;62.15;93167.84;526211;28;821;-49
2023/10/21 01:02:55;;;;;;;2.88;2.30;;;;;;;14.33;62.37;93173.56;526185;28;852;-47
2023/10/21 01:03:10;;;;;;;4.63;2.43;;;;;;;14.33;62.45;93168.75;527115;28;1002;-48
2023/10/21 01:03:26;;;;;;;9.13;2.72;;;;;;;14.35;62.54;93170.94;525613;28;1200;-46
2023/10/21 01:03:42;;;;;;;8.45;2.42;;;;;;;14.36;62.43;93173.13;525812;28;986;-46
2023/10/21 01:03:57;;;;;;;3.93;2.03;;;;;;;14.39;62.57;93171.97;524068;28;860;-47
2023/10/21 01:04:13;;;;;;;2.90;2.10;;;;;;;14.38;62.65;93172.53;523424;28;857;-47
2023/10/21 01:04:28;;;;;;;3.30;2.17;;;;;;;14.36;62.68;93161.28;524048;28;814;-47
2023/10/21 01:04:44;;;;;;;2.58;2.15;;;;;;;14.46;62.51;93175.94;524434;28;1232;-47
2023/10/21 01:04:59;;;;;;;3.20;2.27;;;;;;;14.50;62.32;93181.06;526208;28;816;-47
2023/10/21 01:05:15;;;;;;;3.77;2.10;;;;;;;14.50;62.33;93178.28;526523;28;789;-48
2023/10/21 01:05:30;;;;;;;4.00;2.28;;;;;;;14.51;62.32;93172.13;526175;28;1735;-47
2023/10/21 01:05:46;;;;;;;4.35;2.45;;;;;;;14.52;62.23;93170.09;526610;28;813;-47
2023/10/21 01:06:02;;;;;;;3.87;2.37;;;;;;;14.53;62.25;93174.34;528787;27;1698;-47
2023/10/21 01:06:17;;;;;;;4.07;2.55;;;;;;;14.56;61.93;93173.16;529953;27;1053;-46
2023/10/21 01:06:32;;;;;;;5.03;2.43;;;;;;;14.58;61.96;93170.53;530498;27;789;-47
2023/10/21 01:06:48;;;;;;;4.97;2.30;;;;;;;14.61;61.79;93172.91;530437;27;1013;-48
2023/10/21 01:07:03;;;;;;;3.33;2.20;;;;;;;14.64;61.80;93180.06;528931;28;879;-47
2023/10/21 01:07:18;;;;;;;3.43;2.10;;;;;;;14.66;61.70;93165.59;529026;28;880;-47
2023/10/21 01:07:34;;;;;;;6.32;2.30;;;;;;;14.66;61.59;93171.88;528329;28;801;-46
2023/10/21 01:07:50;;;;;;;6.33;2.43;;;;;;;14.71;61.56;93172.91;528115;28;1181;-47
2023/10/21 01:08:05;;;;;;;4.80;2.45;;;;;;;14.74;61.33;93177.31;528185;28;1057;-47
2023/10/21 01:08:21;;;;;;;4.20;2.60;;;;;;;14.75;61.12;93178.78;528120;28;810;-47
2023/10/21 01:08:43;;;;;;;3.90;2.38;;;;;;;14.78;61.26;93174.81;528289;28;900;-47
2023/10/21 01:08:59;;;;;;;6.65;2.40;;;;;;;14.72;61.19;93164.00;528243;28;1147;-47
2023/10/21 01:09:15;;;;;;;4.20;2.38;;;;;;;14.82;61.01;93169.56;528171;28;1184;-47
2023/10/21 01:09:31;;;;;;;4.25;2.17;;;;;;;14.82;60.85;93167.50;527810;27;1001;-48
2023/10/21 01:09:46;;;;;;;6.20;2.03;;;;;;;14.84;60.69;93169.72;530528;27;1236;-48
2023/10/21 01:10:05;;;;;;;7.17;2.47;;;;;;;14.78;60.90;93156.09;529305;27;1665;-47
2023/10/21 01:10:21;;;;;;;5.85;2.40;;;;;;;14.89;60.76;93168.69;529478;27;901;-47
2023/10/21 01:10:36;;;;;;;3.23;2.00;;;;;;;14.93;60.62;93177.31;530220;27;879;-47
2023/10/21 01:10:51;;;;;;;6.60;2.40;;;;;;;14.94;60.76;93173.97;530414;27;1112;-48
2023/10/21 01:11:08;;;;;;;7.80;2.50;;;;;;;14.97;60.55;93172.06;528712;27;1126;-47
2023/10/21 01:11:24;;;;;;;3.72;2.38;;;;;;;14.99;60.46;93175.72;529794;27;873;-46
2023/10/21 01:11:40;;;;;;;3.70;2.47;;;;;;;15.00;60.46;93170.91;530518;27;777;-49
2023/10/21 01:11:55;;;;;;;3.90;2.45;;;;;;;14.99;60.44;93172.94;530527;27;891;-45
2023/10/21 01:12:11;;;;;;;4.20;2.30;;;;;;;14.97;60.33;93167.25;528693;27;816;-48
2023/10/21 01:12:26;;;;;;;3.70;2.00;;;;;;;14.94;60.19;93160.06;528647;27;885;-46
2023/10/21 01:12:41;;;;;;;3.53;1.90;;;;;;;15.03;60.11;93172.50;528417;28;777;-46
2023/10/21 01:12:57;;;;;;;3.40;1.87;;;;;;;14.98;60.34;93174.28;529989;27;1021;-46
2023/10/21 01:13:12;;;;;;;4.13;2.10;;;;;;;15.01;60.33;93172.34;530504;27;879;-48
2023/10/21 01:13:27;;;;;;;4.00;2.25;;;;;;;15.01;60.38;93173.09;529801;27;1295;-46
2023/10/21 01:13:43;;;;;;;5.00;2.20;;;;;;;15.06;60.29;93168.56;530158;27;821;-47
2023/10/21 01:13:58;;;;;;;5.85;3.00;;;;;;;15.07;60.21;93173.53;528391;28;875;-49
2023/10/21 01:14:14;;;;;;;3.87;3.20;;;;;;;15.08;60.14;93163.88;528547;28;837;-46
2023/10/21 01:14:29;;;;;;;5.67;2.67;;;;;;;15.05;60.17;93165.03;529496;27;1658;-46
2023/10/21 01:14:45;;;;;;;5.55;2.63;;;;;;;15.03;60.08;93170.47;527092;28;853;-47
2023/10/21 01:15:00;;;;;;;3.03;2.40;;;;;;;15.00;60.25;93171.63;527108;28;1417;-47
2023/10/21 01:15:15;;;;;;;3.63;2.57;;;;;;;15.01;60.23;93170.31;525949;28;1046;-46
2023/10/21 01:15:31;;;;;;;4.40;2.40;;;;;;;15.01;60.24;93172.34;524025;28;799;-47
2023/10/21 01:15:46;;;;;;;3.70;2.13;;;;;;;15.03;60.21;93169.72;524044;28;821;-47
2023/10/21 01:16:02;;;;;;;3.38;2.15;;;;;;;15.06;60.11;93169.28;524023;28;845;-47
2023/10/21 01:16:17;;;;;;;4.27;2.20;;;;;;;15.08;60.05;93174.25;524613;28;806;-46
2023/10/21 01:16:33;;;;;;;4.28;2.33;;;;;;;15.10;60.02;93168.84;525775;28;845;-47
2023/10/21 01:16:49;;;;;;;2.93;2.20;;;;;;;15.13;59.94;93174.00;526747;28;1110;-47
2023/10/21 01:17:04;;;;;;;3.78;2.17;;;;;;;15.14;59.69;93169.88;528149;27;1690;-48